createdAt,value
2019-02-27T00:00:15.871Z,1.90
2019-02-27T00:01:16.932Z,1.60
2019-02-27T00:02:15.895Z,1.50
2019-02-27T00:03:15.906Z,1.50
2019-02-27T00:04:15.917Z,1.50
2019-02-27T00:05:15.932Z,1.40
2019-02-27T00:06:16.075Z,1.90
2019-02-27T00:07:15.954Z,1.70
2019-02-27T00:08:15.967Z,1.50
2019-02-27T00:09:15.978Z,1.50
2019-02-27T00:10:15.991Z,1.30
2019-02-27T00:11:15.999Z,1.30
2019-02-27T00:12:16.898Z,1.40
2019-02-27T00:13:16.024Z,1.40
2019-02-27T00:14:16.040Z,1.70
2019-02-27T00:15:16.047Z,1.50
2019-02-27T00:16:16.063Z,1.50
2019-02-27T00:17:18.089Z,1.50
2019-02-27T00:18:16.087Z,1.50
2019-02-27T00:19:16.098Z,1.50
2019-02-27T00:20:16.108Z,1.50
2019-02-27T00:21:16.123Z,1.40
2019-02-27T00:22:17.723Z,1.70
2019-02-27T00:23:16.143Z,1.60
2019-02-27T00:24:16.158Z,1.60
2019-02-27T00:25:16.175Z,1.60
2019-02-27T00:26:16.185Z,1.50
2019-02-27T00:27:16.193Z,1.40
2019-02-27T00:28:16.205Z,1.40
2019-02-27T00:29:16.225Z,1.70
2019-02-27T00:30:16.229Z,1.40
2019-02-27T00:31:16.245Z,1.50
2019-02-27T00:32:18.502Z,1.40
2019-02-27T00:33:16.271Z,2.20
2019-02-27T00:34:16.281Z,1.70
2019-02-27T00:35:16.288Z,1.70
2019-02-27T00:36:16.307Z,1.90
2019-02-27T00:37:18.733Z,1.40
2019-02-27T00:38:16.325Z,1.60
2019-02-27T00:39:16.348Z,1.40
2019-02-27T00:40:16.355Z,1.60
2019-02-27T00:41:16.364Z,1.50
2019-02-27T00:42:19.543Z,2.80
2019-02-27T00:43:16.388Z,1.40
2019-02-27T00:44:16.405Z,2.90
2019-02-27T00:45:16.416Z,1.60
2019-02-27T00:46:16.425Z,1.90
2019-02-27T00:47:17.034Z,2.10
2019-02-27T00:48:16.449Z,1.50
2019-02-27T00:49:16.459Z,1.50
2019-02-27T00:50:16.470Z,2.80
2019-02-27T00:51:16.485Z,3.30
2019-02-27T00:52:18.248Z,1.80
2019-02-27T00:53:16.509Z,1.50
2019-02-27T00:54:16.522Z,1.50
2019-02-27T00:55:16.533Z,1.40
2019-02-27T00:56:16.544Z,2.20
2019-02-27T00:57:20.492Z,1.60
2019-02-27T00:58:16.586Z,2.40
2019-02-27T00:59:16.580Z,2.00
2019-02-27T01:00:16.589Z,1.60
2019-02-27T01:01:16.605Z,2.10
2019-02-27T01:02:20.026Z,1.60
2019-02-27T01:03:16.624Z,1.50
2019-02-27T01:04:16.641Z,1.50
2019-02-27T01:05:16.655Z,1.90
2019-02-27T01:06:16.663Z,1.40
2019-02-27T01:07:20.255Z,2.40
2019-02-27T01:08:16.687Z,1.60
2019-02-27T01:09:16.696Z,1.60
2019-02-27T01:10:16.710Z,1.50
2019-02-27T01:11:18.495Z,1.50
2019-02-27T01:12:16.765Z,1.40
2019-02-27T01:13:16.746Z,1.60
2019-02-27T01:14:16.756Z,1.40
2019-02-27T01:15:16.769Z,1.70
2019-02-27T01:16:17.263Z,1.70
2019-02-27T01:17:16.794Z,1.70
2019-02-27T01:18:16.800Z,1.50
2019-02-27T01:19:16.817Z,1.40
2019-02-27T01:20:16.827Z,1.90
2019-02-27T01:21:19.178Z,1.50
2019-02-27T01:22:16.851Z,1.60
2019-02-27T01:23:16.858Z,1.30
2019-02-27T01:24:17.455Z,2.90
2019-02-27T01:25:16.886Z,1.40
2019-02-27T01:26:16.892Z,4.00
2019-02-27T01:27:16.903Z,1.50
2019-02-27T01:28:16.920Z,1.30
2019-02-27T01:29:18.091Z,1.90
2019-02-27T01:30:16.941Z,2.60
2019-02-27T01:31:16.950Z,1.60
2019-02-27T01:32:16.967Z,1.50
2019-02-27T01:33:16.975Z,1.50
2019-02-27T01:34:16.986Z,2.70
2019-02-27T01:35:18.787Z,1.50
2019-02-27T01:36:17.012Z,2.40
2019-02-27T01:37:17.020Z,1.60
2019-02-27T01:38:17.032Z,2.50
2019-02-27T01:39:17.043Z,1.40
2019-02-27T01:40:18.081Z,1.50
2019-02-27T01:41:17.067Z,1.40
2019-02-27T01:42:17.083Z,1.70
2019-02-27T01:43:17.090Z,1.50
2019-02-27T01:44:17.102Z,1.50
2019-02-27T01:45:20.741Z,1.60
2019-02-27T01:46:17.125Z,1.50
2019-02-27T01:47:17.137Z,1.50
2019-02-27T01:48:17.153Z,1.40
2019-02-27T01:49:17.161Z,1.50
2019-02-27T01:50:17.173Z,1.70
2019-02-27T01:51:17.184Z,1.70
2019-02-27T01:52:17.195Z,1.60
2019-02-27T01:53:17.206Z,2.50
2019-02-27T01:54:17.227Z,1.50
2019-02-27T01:55:17.234Z,1.80
2019-02-27T01:56:17.246Z,5.20
2019-02-27T01:57:17.259Z,1.40
2019-02-27T01:58:17.264Z,2.40
2019-02-27T01:59:17.804Z,1.30
2019-02-27T02:00:17.290Z,1.50
2019-02-27T02:01:17.305Z,1.50
2019-02-27T02:02:17.314Z,1.60
2019-02-27T02:03:17.325Z,1.40
2019-02-27T02:04:20.070Z,1.50
2019-02-27T02:05:17.345Z,1.50
2019-02-27T02:06:17.358Z,1.40
2019-02-27T02:07:17.368Z,2.90
2019-02-27T02:08:17.385Z,2.20
2019-02-27T02:09:21.066Z,2.00
2019-02-27T02:10:17.407Z,1.50
2019-02-27T02:11:17.414Z,1.60
2019-02-27T02:12:17.426Z,1.80
2019-02-27T02:13:17.444Z,1.60
2019-02-27T02:14:20.988Z,1.70
2019-02-27T02:15:17.461Z,1.70
2019-02-27T02:16:17.475Z,1.70
2019-02-27T02:17:17.481Z,1.50
2019-02-27T02:18:17.496Z,1.50
2019-02-27T02:19:18.953Z,2.10
2019-02-27T02:20:17.518Z,2.90
2019-02-27T02:21:17.527Z,2.80
2019-02-27T02:22:17.540Z,1.40
2019-02-27T02:23:17.552Z,1.80
2019-02-27T02:24:20.897Z,1.50
2019-02-27T02:25:17.575Z,3.10
2019-02-27T02:26:17.583Z,1.40
2019-02-27T02:27:17.594Z,1.50
2019-02-27T02:28:17.609Z,1.50
2019-02-27T02:29:17.944Z,1.40
2019-02-27T02:30:17.628Z,2.40
2019-02-27T02:31:17.644Z,1.50
2019-02-27T02:32:18.165Z,1.90
2019-02-27T02:33:17.667Z,1.80
2019-02-27T02:34:17.671Z,1.60
2019-02-27T02:35:17.686Z,1.50
2019-02-27T02:36:17.697Z,1.70
2019-02-27T02:37:17.710Z,1.50
2019-02-27T02:38:17.728Z,1.40
2019-02-27T02:39:19.249Z,1.50
2019-02-27T02:40:17.744Z,1.50
2019-02-27T02:41:17.755Z,1.30
2019-02-27T02:42:17.774Z,1.50
2019-02-27T02:43:17.775Z,1.30
2019-02-27T02:44:20.658Z,1.30
2019-02-27T02:45:17.800Z,1.50
2019-02-27T02:46:17.809Z,1.40
2019-02-27T02:47:21.055Z,1.80
2019-02-27T02:48:17.827Z,1.40
2019-02-27T02:49:17.837Z,1.70
2019-02-27T02:50:18.514Z,1.40
2019-02-27T02:51:17.878Z,1.40
2019-02-27T02:52:17.881Z,1.60
2019-02-27T02:53:17.888Z,1.40
2019-02-27T02:54:17.899Z,1.30
2019-02-27T02:55:17.907Z,1.50
2019-02-27T02:56:23.689Z,1.80
2019-02-27T02:57:17.931Z,1.40
2019-02-27T02:58:17.957Z,2.40
2019-02-27T02:59:24.530Z,1.40
2019-02-27T03:00:17.962Z,1.60
2019-02-27T03:01:17.972Z,1.30
2019-02-27T03:02:23.460Z,1.80
2019-02-27T03:03:17.994Z,1.40
2019-02-27T03:04:18.004Z,1.60
2019-02-27T03:05:23.338Z,1.60
2019-02-27T03:06:18.026Z,1.50
2019-02-27T03:07:18.050Z,1.30
2019-02-27T03:08:20.157Z,1.50
2019-02-27T03:09:18.068Z,1.60
2019-02-27T03:10:18.089Z,2.70
2019-02-27T03:11:19.285Z,1.70
2019-02-27T03:12:18.099Z,1.50
2019-02-27T03:13:18.108Z,1.50
2019-02-27T03:14:18.623Z,3.40
2019-02-27T03:15:18.128Z,1.40
2019-02-27T03:16:18.141Z,1.40
2019-02-27T03:17:19.230Z,1.40
2019-02-27T03:18:18.165Z,1.40
2019-02-27T03:19:18.171Z,1.40
2019-02-27T03:20:18.188Z,1.80
2019-02-27T03:21:18.203Z,1.50
2019-02-27T03:22:18.208Z,1.60
2019-02-27T03:23:18.217Z,1.40
2019-02-27T03:24:18.236Z,1.50
2019-02-27T03:25:18.244Z,2.20
2019-02-27T03:26:18.271Z,1.50
2019-02-27T03:27:18.265Z,1.40
2019-02-27T03:28:18.276Z,1.40
2019-02-27T03:29:18.285Z,1.40
2019-02-27T03:30:18.302Z,1.30
2019-02-27T03:31:19.201Z,1.30
2019-02-27T03:32:18.323Z,1.40
2019-02-27T03:33:24.451Z,1.40
2019-02-27T03:34:18.347Z,1.60
2019-02-27T03:35:18.361Z,1.90
2019-02-27T03:36:18.366Z,1.40
2019-02-27T03:37:18.376Z,1.50
2019-02-27T03:38:23.839Z,1.30
2019-02-27T03:39:18.398Z,1.30
2019-02-27T03:40:18.410Z,1.50
2019-02-27T03:41:22.550Z,2.40
2019-02-27T03:42:18.431Z,1.30
2019-02-27T03:43:18.441Z,1.60
2019-02-27T03:44:20.723Z,2.10
2019-02-27T03:45:18.462Z,1.30
2019-02-27T03:46:18.472Z,1.40
2019-02-27T03:47:18.489Z,1.60
2019-02-27T03:48:18.499Z,1.30
2019-02-27T03:49:18.508Z,1.40
2019-02-27T03:50:18.517Z,2.30
2019-02-27T03:51:24.336Z,1.30
2019-02-27T03:52:18.541Z,1.80
2019-02-27T03:53:18.554Z,1.50
2019-02-27T03:54:21.327Z,1.80
2019-02-27T03:55:18.576Z,1.60
2019-02-27T03:56:18.588Z,1.40
2019-02-27T03:57:20.132Z,1.40
2019-02-27T03:58:18.613Z,1.40
2019-02-27T03:59:18.617Z,1.80
2019-02-27T04:00:19.389Z,2.50
2019-02-27T04:01:18.646Z,1.40
2019-02-27T04:02:18.656Z,1.30
2019-02-27T04:03:18.747Z,1.30
2019-02-27T04:04:18.675Z,1.50
2019-02-27T04:05:18.686Z,1.40
2019-02-27T04:06:21.311Z,1.80
2019-02-27T04:07:18.720Z,1.60
2019-02-27T04:08:18.738Z,1.80
2019-02-27T04:09:20.108Z,1.40
2019-02-27T04:10:18.742Z,1.40
2019-02-27T04:11:18.751Z,1.50
2019-02-27T04:12:18.764Z,3.00
2019-02-27T04:13:18.771Z,1.50
2019-02-27T04:14:18.784Z,1.50
2019-02-27T04:15:18.930Z,1.60
2019-02-27T04:16:18.809Z,1.90
2019-02-27T04:17:18.829Z,1.30
2019-02-27T04:18:18.830Z,1.70
2019-02-27T04:19:18.838Z,1.30
2019-02-27T04:20:18.852Z,1.40
2019-02-27T04:21:24.998Z,1.30
2019-02-27T04:22:18.874Z,1.80
2019-02-27T04:23:18.884Z,1.40
2019-02-27T04:24:22.168Z,1.30
2019-02-27T04:25:18.901Z,1.30
2019-02-27T04:26:19.468Z,1.50
2019-02-27T04:27:21.272Z,1.50
2019-02-27T04:28:18.937Z,1.50
2019-02-27T04:29:18.948Z,2.30
2019-02-27T04:30:18.959Z,1.40
2019-02-27T04:31:18.968Z,1.30
2019-02-27T04:32:18.977Z,1.40
2019-02-27T04:33:22.849Z,2.30
2019-02-27T04:34:19.005Z,4.40
2019-02-27T04:35:19.010Z,1.40
2019-02-27T04:36:19.024Z,2.60
2019-02-27T04:37:20.408Z,1.70
2019-02-27T04:38:19.047Z,2.20
2019-02-27T04:39:19.051Z,2.70
2019-02-27T04:40:19.063Z,2.50
2019-02-27T04:41:19.076Z,2.80
2019-02-27T04:42:19.084Z,2.20
2019-02-27T04:43:19.115Z,1.40
2019-02-27T04:44:19.109Z,3.40
2019-02-27T04:45:19.117Z,8.60
2019-02-27T04:46:21.565Z,2.50
2019-02-27T04:47:19.139Z,2.60
2019-02-27T04:48:19.150Z,1.70
2019-02-27T04:49:19.164Z,1.50
2019-02-27T04:50:19.171Z,1.60
2019-02-27T04:51:19.182Z,1.70
2019-02-27T04:52:19.198Z,3.10
2019-02-27T04:53:19.205Z,1.40
2019-02-27T04:54:19.213Z,1.50
2019-02-27T04:55:19.226Z,1.30
2019-02-27T04:56:23.161Z,1.60
2019-02-27T04:57:19.247Z,1.60
2019-02-27T04:58:19.260Z,2.40
2019-02-27T04:59:19.351Z,1.50
2019-02-27T05:00:19.279Z,1.30
2019-02-27T05:01:19.290Z,1.30
2019-02-27T05:02:19.302Z,1.30
2019-02-27T05:03:19.313Z,1.50
2019-02-27T05:04:19.321Z,1.40
2019-02-27T05:05:19.334Z,1.30
2019-02-27T05:06:19.345Z,1.60
2019-02-27T05:07:20.358Z,2.20
2019-02-27T05:08:19.368Z,1.40
2019-02-27T05:09:19.381Z,1.20
2019-02-27T05:10:19.387Z,1.50
2019-02-27T05:11:19.401Z,1.30
2019-02-27T05:12:19.409Z,1.40
2019-02-27T05:13:20.893Z,1.40
2019-02-27T05:14:19.431Z,2.30
2019-02-27T05:15:19.443Z,1.30
2019-02-27T05:16:19.471Z,1.40
2019-02-27T05:17:21.473Z,1.80
2019-02-27T05:18:19.472Z,1.60
2019-02-27T05:19:19.533Z,1.40
2019-02-27T05:20:19.493Z,2.20
2019-02-27T05:21:19.804Z,1.40
2019-02-27T05:22:19.516Z,1.60
2019-02-27T05:23:19.529Z,1.30
2019-02-27T05:24:19.538Z,1.50
2019-02-27T05:25:19.549Z,1.30
2019-02-27T05:26:19.558Z,1.40
2019-02-27T05:27:19.571Z,1.30
2019-02-27T05:28:19.585Z,1.40
2019-02-27T05:29:19.591Z,2.30
2019-02-27T05:30:19.605Z,1.30
2019-02-27T05:31:19.612Z,1.60
2019-02-27T05:32:19.623Z,1.50
2019-02-27T05:33:19.634Z,1.40
2019-02-27T05:34:19.647Z,1.40
2019-02-27T05:35:23.549Z,2.60
2019-02-27T05:36:19.672Z,1.30
2019-02-27T05:37:19.692Z,1.30
2019-02-27T05:38:19.692Z,1.40
2019-02-27T05:39:19.699Z,1.30
2019-02-27T05:40:19.710Z,1.40
2019-02-27T05:41:19.729Z,2.30
2019-02-27T05:42:19.730Z,1.30
2019-02-27T05:43:19.748Z,1.30
2019-02-27T05:44:22.102Z,1.60
2019-02-27T05:45:19.768Z,1.30
2019-02-27T05:46:19.780Z,1.30
2019-02-27T05:47:19.785Z,1.30
2019-02-27T05:48:20.188Z,1.70
2019-02-27T05:49:19.806Z,1.30
2019-02-27T05:50:19.820Z,1.60
2019-02-27T05:51:19.830Z,1.30
2019-02-27T05:52:19.839Z,1.30
2019-02-27T05:53:22.082Z,1.50
2019-02-27T05:54:19.860Z,1.30
2019-02-27T05:55:19.874Z,1.70
2019-02-27T05:56:19.887Z,1.50
2019-02-27T05:57:21.096Z,2.50
2019-02-27T05:58:22.869Z,1.40
2019-02-27T05:59:19.913Z,1.60
2019-02-27T06:00:19.925Z,2.20
2019-02-27T06:01:19.935Z,1.90
2019-02-27T06:02:19.948Z,2.50
2019-02-27T06:03:19.964Z,1.50
2019-02-27T06:04:19.971Z,1.50
2019-02-27T06:05:19.977Z,2.40
2019-02-27T06:06:19.988Z,1.50
2019-02-27T06:07:20.001Z,1.50
2019-02-27T06:08:20.003Z,1.50
2019-02-27T06:09:20.009Z,1.40
2019-02-27T06:10:20.886Z,1.40
2019-02-27T06:11:20.031Z,1.80
2019-02-27T06:12:20.054Z,4.10
2019-02-27T06:13:20.053Z,1.30
2019-02-27T06:14:21.390Z,2.70
2019-02-27T06:15:20.079Z,1.40
2019-02-27T06:16:20.087Z,1.40
2019-02-27T06:17:20.146Z,1.50
2019-02-27T06:18:22.735Z,1.60
2019-02-27T06:19:20.119Z,1.50
2019-02-27T06:20:20.110Z,1.50
2019-02-27T06:21:20.137Z,2.60
2019-02-27T06:22:20.130Z,1.70
2019-02-27T06:23:20.138Z,1.30
2019-02-27T06:24:20.152Z,3.00
2019-02-27T06:25:23.463Z,1.30
2019-02-27T06:26:20.174Z,1.30
2019-02-27T06:27:20.181Z,1.30
2019-02-27T06:28:20.192Z,1.40
2019-02-27T06:29:23.283Z,1.40
2019-02-27T06:30:20.214Z,1.40
2019-02-27T06:31:20.226Z,1.60
2019-02-27T06:32:20.236Z,1.60
2019-02-27T06:33:20.251Z,1.40
2019-02-27T06:34:22.343Z,1.40
2019-02-27T06:35:20.264Z,1.40
2019-02-27T06:36:20.276Z,2.40
2019-02-27T06:37:20.289Z,1.40
2019-02-27T06:38:20.296Z,1.40
2019-02-27T06:39:20.312Z,1.40
2019-02-27T06:40:20.318Z,1.50
2019-02-27T06:41:20.331Z,1.30
2019-02-27T06:42:20.372Z,1.50
2019-02-27T06:43:20.350Z,2.40
2019-02-27T06:44:20.369Z,1.50
2019-02-27T06:45:20.370Z,1.80
2019-02-27T06:46:20.782Z,1.40
2019-02-27T06:47:20.397Z,1.30
2019-02-27T06:48:20.403Z,1.30
2019-02-27T06:49:20.414Z,1.50
2019-02-27T06:50:22.976Z,1.60
2019-02-27T06:51:20.440Z,1.30
2019-02-27T06:52:20.446Z,1.40
2019-02-27T06:53:20.460Z,1.40
2019-02-27T06:54:20.471Z,1.30
2019-02-27T06:55:20.484Z,1.30
2019-02-27T06:56:20.489Z,1.40
2019-02-27T06:57:20.499Z,1.50
2019-02-27T06:58:20.513Z,1.50
2019-02-27T06:59:24.613Z,1.50
2019-02-27T07:00:20.539Z,1.40
2019-02-27T07:01:20.548Z,2.20
2019-02-27T07:02:21.673Z,1.50
2019-02-27T07:03:20.567Z,1.60
2019-02-27T07:04:20.575Z,3.80
2019-02-27T07:05:20.592Z,10.40
2019-02-27T07:06:21.665Z,7.30
2019-02-27T07:07:20.610Z,14.20
2019-02-27T07:08:20.617Z,26.40
2019-02-27T07:09:20.631Z,10.20
2019-02-27T07:10:20.740Z,10.70
2019-02-27T07:11:20.650Z,6.10
2019-02-27T07:12:21.808Z,3.20
2019-02-27T07:13:21.635Z,2.50
2019-02-27T07:14:20.682Z,1.40
2019-02-27T07:15:20.696Z,1.80
2019-02-27T07:16:22.945Z,1.70
2019-02-27T07:17:20.719Z,1.50
2019-02-27T07:18:20.727Z,1.40
2019-02-27T07:19:20.741Z,2.40
2019-02-27T07:20:23.875Z,1.40
2019-02-27T07:21:20.763Z,2.60
2019-02-27T07:22:20.775Z,1.40
2019-02-27T07:23:23.669Z,1.50
2019-02-27T07:24:20.798Z,1.50
2019-02-27T07:25:20.809Z,2.30
2019-02-27T07:26:20.812Z,1.60
2019-02-27T07:27:20.824Z,1.80
2019-02-27T07:28:20.836Z,1.90
2019-02-27T07:29:22.074Z,2.00
2019-02-27T07:30:20.877Z,1.60
2019-02-27T07:31:20.877Z,1.50
2019-02-27T07:32:20.880Z,1.70
2019-02-27T07:33:20.901Z,1.50
2019-02-27T07:34:20.900Z,1.50
2019-02-27T07:35:25.393Z,1.90
2019-02-27T07:36:20.922Z,1.70
2019-02-27T07:37:20.936Z,1.90
2019-02-27T07:38:21.733Z,1.50
2019-02-27T07:39:20.959Z,3.30
2019-02-27T07:40:20.966Z,2.40
2019-02-27T07:41:21.083Z,1.60
2019-02-27T07:42:20.988Z,1.50
2019-02-27T07:43:20.999Z,1.40
2019-02-27T07:44:21.010Z,1.60
2019-02-27T07:45:22.702Z,2.90
2019-02-27T07:46:22.517Z,2.70
2019-02-27T07:47:21.061Z,1.50
2019-02-27T07:48:21.056Z,1.40
2019-02-27T07:49:21.072Z,1.40
2019-02-27T07:50:21.083Z,1.30
2019-02-27T07:51:23.288Z,1.70
2019-02-27T07:52:21.102Z,1.50
2019-02-27T07:53:21.114Z,1.70
2019-02-27T07:54:21.128Z,1.50
2019-02-27T07:55:22.767Z,2.80
2019-02-27T07:56:21.145Z,1.40
2019-02-27T07:57:21.157Z,1.40
2019-02-27T07:58:21.170Z,1.30
2019-02-27T07:59:21.183Z,1.40
2019-02-27T08:00:21.191Z,1.80
2019-02-27T08:01:23.532Z,1.40
2019-02-27T08:02:21.211Z,1.70
2019-02-27T08:03:21.228Z,1.40
2019-02-27T08:04:23.022Z,1.50
2019-02-27T08:05:21.247Z,1.40
2019-02-27T08:06:23.460Z,1.30
2019-02-27T08:07:21.268Z,1.60
2019-02-27T08:08:23.739Z,1.40
2019-02-27T08:09:21.291Z,1.40
2019-02-27T08:10:21.303Z,3.50
2019-02-27T08:11:21.317Z,1.40
2019-02-27T08:12:21.325Z,1.40
2019-02-27T08:13:21.339Z,1.30
2019-02-27T08:14:21.355Z,1.40
2019-02-27T08:15:21.363Z,1.40
2019-02-27T08:16:21.943Z,1.30
2019-02-27T08:17:21.389Z,1.30
2019-02-27T08:18:29.802Z,1.30
2019-02-27T08:19:21.414Z,1.40
2019-02-27T08:20:21.420Z,1.70
2019-02-27T08:21:21.431Z,1.40
2019-02-27T08:22:21.445Z,1.90
2019-02-27T08:23:21.462Z,1.30
2019-02-27T08:24:22.436Z,2.00
2019-02-27T08:25:21.503Z,1.30
2019-02-27T08:26:21.489Z,1.30
2019-02-27T08:27:21.501Z,2.60
2019-02-27T08:28:21.514Z,1.30
2019-02-27T08:29:21.525Z,2.60
2019-02-27T08:30:21.544Z,8.70
2019-02-27T08:31:21.555Z,5.10
2019-02-27T08:32:21.561Z,1.60
2019-02-27T08:33:21.574Z,1.40
2019-02-27T08:34:21.591Z,1.40
2019-02-27T08:35:21.603Z,1.40
2019-02-27T08:36:21.610Z,2.40
2019-02-27T08:37:21.626Z,2.70
2019-02-27T08:38:23.514Z,1.40
2019-02-27T08:39:21.652Z,2.20
2019-02-27T08:40:24.215Z,1.60
2019-02-27T08:41:21.677Z,1.50
2019-02-27T08:42:21.685Z,1.30
2019-02-27T08:43:21.696Z,1.60
2019-02-27T08:44:21.708Z,1.50
2019-02-27T08:45:26.720Z,1.60
2019-02-27T08:46:21.736Z,2.40
2019-02-27T08:47:21.748Z,1.40
2019-02-27T08:48:21.758Z,1.50
2019-02-27T08:49:24.177Z,1.50
2019-02-27T08:50:21.789Z,1.90
2019-02-27T08:51:21.799Z,2.40
2019-02-27T08:52:21.812Z,1.40
2019-02-27T08:53:25.998Z,3.00
2019-02-27T08:54:21.832Z,1.60
2019-02-27T08:55:22.465Z,1.50
2019-02-27T08:56:21.861Z,1.30
2019-02-27T08:57:21.871Z,1.50
2019-02-27T08:58:21.887Z,2.20
2019-02-27T08:59:21.896Z,1.50
2019-02-27T09:00:23.289Z,1.30
2019-02-27T09:01:22.427Z,2.10
2019-02-27T09:02:24.151Z,1.60
2019-02-27T09:03:21.955Z,1.30
2019-02-27T09:04:21.964Z,1.70
2019-02-27T09:05:21.982Z,1.40
2019-02-27T09:06:21.991Z,1.40
2019-02-27T09:07:21.997Z,1.40
2019-02-27T09:08:22.011Z,1.60
2019-02-27T09:09:22.035Z,1.50
2019-02-27T09:10:23.191Z,1.30
2019-02-27T09:11:22.059Z,1.40
2019-02-27T09:12:22.067Z,1.40
2019-02-27T09:13:22.081Z,1.50
2019-02-27T09:14:22.089Z,1.40
2019-02-27T09:15:22.103Z,1.40
2019-02-27T09:16:23.097Z,2.30
2019-02-27T09:17:22.135Z,2.00
2019-02-27T09:18:22.947Z,3.00
2019-02-27T09:19:22.155Z,1.60
2019-02-27T09:20:22.174Z,1.40
2019-02-27T09:21:22.181Z,2.10
2019-02-27T09:22:22.195Z,1.50
2019-02-27T09:23:22.255Z,1.70
2019-02-27T09:24:22.220Z,2.70
2019-02-27T09:25:24.532Z,1.80
2019-02-27T09:26:22.249Z,1.60
2019-02-27T09:27:22.261Z,1.80
2019-02-27T09:28:22.273Z,1.50
2019-02-27T09:29:22.293Z,1.30
2019-02-27T09:30:22.299Z,1.80
2019-02-27T09:31:22.314Z,1.50
2019-02-27T09:32:22.331Z,1.50
2019-02-27T09:33:22.343Z,1.50
2019-02-27T09:34:26.654Z,2.50
2019-02-27T09:35:22.367Z,1.40
2019-02-27T09:36:22.381Z,1.60
2019-02-27T09:37:22.400Z,1.40
2019-02-27T09:38:24.324Z,1.50
2019-02-27T09:39:22.422Z,1.40
2019-02-27T09:40:22.438Z,1.50
2019-02-27T09:41:22.450Z,1.70
2019-02-27T09:42:22.464Z,2.30
2019-02-27T09:43:24.181Z,1.50
2019-02-27T09:44:22.492Z,1.50
2019-02-27T09:45:22.510Z,1.60
2019-02-27T09:46:22.519Z,1.40
2019-02-27T09:47:25.422Z,1.50
2019-02-27T09:48:22.552Z,1.60
2019-02-27T09:49:22.570Z,1.40
2019-02-27T09:50:22.585Z,1.40
2019-02-27T09:51:22.906Z,1.40
2019-02-27T09:52:23.731Z,1.40
2019-02-27T09:53:22.624Z,1.90
2019-02-27T09:54:22.648Z,3.10
2019-02-27T09:55:22.656Z,1.50
2019-02-27T09:56:22.664Z,1.60
2019-02-27T09:57:22.681Z,1.50
2019-02-27T09:58:22.858Z,1.40
2019-02-27T09:59:22.722Z,1.40
2019-02-27T10:00:25.915Z,1.40
2019-02-27T10:01:22.743Z,1.40
2019-02-27T10:02:22.753Z,1.40
2019-02-27T10:03:22.764Z,1.70
2019-02-27T10:04:22.780Z,1.30
2019-02-27T10:05:22.797Z,1.30
2019-02-27T10:06:22.817Z,1.40
2019-02-27T10:07:22.824Z,1.40
2019-02-27T10:08:25.390Z,1.40
2019-02-27T10:09:22.870Z,1.40
2019-02-27T10:10:22.870Z,2.20
2019-02-27T10:11:22.892Z,1.40
2019-02-27T10:12:27.130Z,1.40
2019-02-27T10:13:22.921Z,1.40
2019-02-27T10:14:22.932Z,1.40
2019-02-27T10:15:25.231Z,1.40
2019-02-27T10:16:22.966Z,1.40
2019-02-27T10:17:22.977Z,1.30
2019-02-27T10:18:22.996Z,1.50
2019-02-27T10:19:23.011Z,1.60
2019-02-27T10:20:23.033Z,1.40
2019-02-27T10:21:23.045Z,1.40
2019-02-27T10:22:24.607Z,1.50
2019-02-27T10:23:23.077Z,2.10
2019-02-27T10:24:23.086Z,1.40
2019-02-27T10:25:23.103Z,1.50
2019-02-27T10:26:23.119Z,1.70
2019-02-27T10:27:28.418Z,1.50
2019-02-27T10:28:23.151Z,1.80
2019-02-27T10:29:23.167Z,1.30
2019-02-27T10:30:23.178Z,1.60
2019-02-27T10:31:25.968Z,1.40
2019-02-27T10:32:23.215Z,1.50
2019-02-27T10:33:23.227Z,1.30
2019-02-27T10:34:23.245Z,1.40
2019-02-27T10:35:23.263Z,1.40
2019-02-27T10:36:23.281Z,1.70
2019-02-27T10:37:23.495Z,1.40
2019-02-27T10:38:26.152Z,1.30
2019-02-27T10:39:23.324Z,1.50
2019-02-27T10:40:23.341Z,1.50
2019-02-27T10:41:23.361Z,1.40
2019-02-27T10:42:23.369Z,1.50
2019-02-27T10:43:23.390Z,1.40
2019-02-27T10:44:23.404Z,1.40
2019-02-27T10:45:23.419Z,1.50
2019-02-27T10:46:24.281Z,1.50
2019-02-27T10:47:23.454Z,1.60
2019-02-27T10:48:23.467Z,1.40
2019-02-27T10:49:23.489Z,1.30
2019-02-27T10:50:23.499Z,1.50
2019-02-27T10:51:23.521Z,1.30
2019-02-27T10:52:24.265Z,1.60
2019-02-27T10:53:27.100Z,1.30
2019-02-27T10:54:23.564Z,1.50
2019-02-27T10:55:23.587Z,1.40
2019-02-27T10:56:24.257Z,2.60
2019-02-27T10:57:23.629Z,1.30
2019-02-27T10:58:24.679Z,1.60
2019-02-27T10:59:23.653Z,1.30
2019-02-27T11:00:25.095Z,1.60
2019-02-27T11:01:23.687Z,1.40
2019-02-27T11:02:23.765Z,1.30
2019-02-27T11:03:27.248Z,1.40
2019-02-27T11:04:23.741Z,2.50
2019-02-27T11:05:23.759Z,1.50
2019-02-27T11:06:23.770Z,2.40
2019-02-27T11:07:23.785Z,1.30
2019-02-27T11:08:23.805Z,1.50
2019-02-27T11:09:23.817Z,1.50
2019-02-27T11:10:23.836Z,1.40
2019-02-27T11:11:23.854Z,1.50
2019-02-27T11:12:23.870Z,2.30
2019-02-27T11:13:23.888Z,1.50
2019-02-27T11:14:23.902Z,1.90
2019-02-27T11:15:23.921Z,3.40
2019-02-27T11:16:23.934Z,1.80
2019-02-27T11:17:23.956Z,1.50
2019-02-27T11:18:23.971Z,1.40
2019-02-27T11:19:23.984Z,1.50
2019-02-27T11:20:24.758Z,1.30
2019-02-27T11:21:24.020Z,1.50
2019-02-27T11:22:24.035Z,1.40
2019-02-27T11:23:24.055Z,1.40
2019-02-27T11:24:24.752Z,2.00
2019-02-27T11:25:24.104Z,1.80
2019-02-27T11:26:24.107Z,1.40
2019-02-27T11:27:24.122Z,1.50
2019-02-27T11:28:24.141Z,1.50
2019-02-27T11:29:24.437Z,1.60
2019-02-27T11:30:24.179Z,1.80
2019-02-27T11:31:24.190Z,1.60
2019-02-27T11:32:24.213Z,1.90
2019-02-27T11:33:25.939Z,1.50
2019-02-27T11:34:24.246Z,1.60
2019-02-27T11:35:25.195Z,1.40
2019-02-27T11:36:24.277Z,1.50
2019-02-27T11:37:24.299Z,1.50
2019-02-27T11:38:25.347Z,1.40
2019-02-27T11:39:24.331Z,1.60
2019-02-27T11:40:24.351Z,1.70
2019-02-27T11:41:24.368Z,1.60
2019-02-27T11:42:24.384Z,1.40
2019-02-27T11:43:24.402Z,1.40
2019-02-27T11:44:24.421Z,1.40
2019-02-27T11:45:24.888Z,1.40
2019-02-27T11:46:24.458Z,1.70
2019-02-27T11:47:24.470Z,2.20
2019-02-27T11:48:24.491Z,1.40
2019-02-27T11:49:24.505Z,1.50
2019-02-27T11:50:24.522Z,1.40
2019-02-27T11:51:24.540Z,2.90
2019-02-27T11:52:27.881Z,2.20
2019-02-27T11:53:24.580Z,1.40
2019-02-27T11:54:24.592Z,1.50
2019-02-27T11:55:24.726Z,1.40
2019-02-27T11:56:24.634Z,2.30
2019-02-27T11:57:27.292Z,1.40
2019-02-27T11:58:24.669Z,1.40
2019-02-27T11:59:24.691Z,1.70
2019-02-27T12:00:24.763Z,1.60
2019-02-27T12:01:24.727Z,1.50
2019-02-27T12:02:29.079Z,1.70
2019-02-27T12:03:24.757Z,1.70
2019-02-27T12:04:24.773Z,1.80
2019-02-27T12:05:24.794Z,1.40
2019-02-27T12:06:24.809Z,2.60
2019-02-27T12:07:24.827Z,1.30
2019-02-27T12:08:26.681Z,1.40
2019-02-27T12:09:24.868Z,1.50
2019-02-27T12:10:24.880Z,1.40
2019-02-27T12:11:24.900Z,1.50
2019-02-27T12:12:24.924Z,1.50
2019-02-27T12:13:24.935Z,1.50
2019-02-27T12:14:24.962Z,2.00
2019-02-27T12:15:24.974Z,1.60
2019-02-27T12:16:24.993Z,2.10
2019-02-27T12:17:25.727Z,1.60
2019-02-27T12:18:25.032Z,1.50
2019-02-27T12:19:25.045Z,1.40
2019-02-27T12:20:25.063Z,1.80
2019-02-27T12:21:26.228Z,1.90
2019-02-27T12:22:25.105Z,1.60
2019-02-27T12:23:25.128Z,1.60
2019-02-27T12:24:25.137Z,1.50
2019-02-27T12:25:29.187Z,1.60
2019-02-27T12:26:25.177Z,1.50
2019-02-27T12:27:47.931Z,2.10
2019-02-27T12:28:25.214Z,1.70
2019-02-27T12:29:26.557Z,2.00
2019-02-27T12:30:25.254Z,1.60
2019-02-27T12:31:25.265Z,1.70
2019-02-27T12:32:25.290Z,1.40
2019-02-27T12:33:29.206Z,1.50
2019-02-27T12:34:25.321Z,1.50
2019-02-27T12:35:25.345Z,1.40
2019-02-27T12:36:25.363Z,1.50
2019-02-27T12:37:28.361Z,3.10
2019-02-27T12:38:25.398Z,1.50
2019-02-27T12:39:25.421Z,2.10
2019-02-27T12:40:25.451Z,1.60
2019-02-27T12:41:25.459Z,2.10
2019-02-27T12:42:25.478Z,1.40
2019-02-27T12:43:25.499Z,1.60
2019-02-27T12:44:25.516Z,1.40
2019-02-27T12:45:26.512Z,1.50
2019-02-27T12:46:25.550Z,3.10
2019-02-27T12:47:25.574Z,2.80
2019-02-27T12:48:25.588Z,1.50
2019-02-27T12:49:25.607Z,1.50
2019-02-27T12:50:26.846Z,1.50
2019-02-27T12:51:25.646Z,1.50
2019-02-27T12:52:25.670Z,2.10
2019-02-27T12:53:25.685Z,1.40
2019-02-27T12:54:26.819Z,1.30
2019-02-27T12:55:25.732Z,1.40
2019-02-27T12:56:25.744Z,1.90
2019-02-27T12:57:25.767Z,1.50
2019-02-27T12:58:25.780Z,1.50
2019-02-27T12:59:25.813Z,1.80
2019-02-27T13:00:25.825Z,1.70
2019-02-27T13:01:25.841Z,1.80
2019-02-27T13:02:35.224Z,2.50
2019-02-27T13:03:25.879Z,1.90
2019-02-27T13:04:25.899Z,1.50
2019-02-27T13:05:27.286Z,1.70
2019-02-27T13:06:25.931Z,2.50
2019-02-27T13:07:27.704Z,1.50
2019-02-27T13:08:25.972Z,2.30
2019-02-27T13:09:25.989Z,3.00
2019-02-27T13:10:26.007Z,1.40
2019-02-27T13:11:26.032Z,1.40
2019-02-27T13:12:26.050Z,1.40
2019-02-27T13:13:26.512Z,2.80
2019-02-27T13:14:26.087Z,1.40
2019-02-27T13:15:26.108Z,2.30
2019-02-27T13:16:26.277Z,1.50
2019-02-27T13:17:26.144Z,1.50
2019-02-27T13:18:31.595Z,1.40